createdAt,value
2023-04-20T00:00:11.042Z,72.60
2023-04-20T00:02:21.902Z,72.20
2023-04-20T00:04:27.056Z,72.80
2023-04-20T00:06:33.150Z,71.90
2023-04-20T00:08:38.217Z,72.90
2023-04-20T00:10:43.540Z,74.30
2023-04-20T00:12:48.923Z,73.50
2023-04-20T00:14:54.002Z,72.60
2023-04-20T00:16:59.752Z,72.90
2023-04-20T00:19:08.392Z,72.50
2023-04-20T00:21:13.703Z,72.30
2023-04-20T00:23:18.827Z,72.70
2023-04-20T00:25:24.622Z,72.90
2023-04-20T00:27:30.950Z,73.10
2023-04-20T00:29:36.806Z,72.70
2023-04-20T00:31:43.769Z,74.00
2023-04-20T00:33:52.382Z,73.70
2023-04-20T00:35:59.964Z,74.00
2023-04-20T00:38:04.982Z,74.00
2023-04-20T00:40:11.966Z,74.30
2023-04-20T00:42:17.399Z,74.70
2023-04-20T00:44:22.940Z,74.60
2023-04-20T00:46:28.086Z,75.50
2023-04-20T00:48:33.167Z,75.50
2023-04-20T00:50:40.123Z,75.70
2023-04-20T00:52:48.361Z,75.30
2023-04-20T00:54:53.704Z,76.10
2023-04-20T00:56:59.403Z,76.40
2023-04-20T00:59:05.419Z,76.60
2023-04-20T01:01:10.498Z,78.00
2023-04-20T01:03:16.984Z,78.40
2023-04-20T01:05:27.030Z,79.20
2023-04-20T01:07:33.721Z,79.10
2023-04-20T01:09:43.404Z,80.10
2023-04-20T01:11:48.421Z,80.10
2023-04-20T01:13:54.703Z,80.50
2023-04-20T01:16:03.777Z,80.30
2023-04-20T01:18:09.993Z,81.20
2023-04-20T01:20:16.546Z,80.70
2023-04-20T01:22:25.570Z,82.00
2023-04-20T01:24:31.923Z,81.90
2023-04-20T01:26:37.439Z,81.60
2023-04-20T01:28:42.963Z,82.60
2023-04-20T01:30:48.541Z,82.40
2023-04-20T01:32:53.724Z,83.00
2023-04-20T01:34:59.819Z,83.50
2023-04-20T01:37:08.271Z,84.20
2023-04-20T01:39:16.600Z,84.50
2023-04-20T01:41:22.311Z,84.70
2023-04-20T01:43:27.518Z,84.70
2023-04-20T01:45:32.618Z,84.90
2023-04-20T01:47:38.859Z,84.40
2023-04-20T01:49:45.434Z,85.40
2023-04-20T01:51:50.655Z,84.60
2023-04-20T01:53:56.222Z,85.00
2023-04-20T01:56:03.855Z,85.20
2023-04-20T01:58:08.892Z,86.00
2023-04-20T02:00:16.329Z,85.80
2023-04-20T02:02:22.360Z,85.60
2023-04-20T02:04:28.146Z,86.50
2023-04-20T02:06:34.252Z,86.00
2023-04-20T02:08:39.913Z,87.10
2023-04-20T02:10:46.344Z,87.90
2023-04-20T02:12:54.084Z,88.70
2023-04-20T02:14:59.607Z,88.00
2023-04-20T02:17:05.681Z,87.70
2023-04-20T02:19:10.975Z,87.60
2023-04-20T02:21:16.644Z,87.30
2023-04-20T02:23:22.126Z,87.90
2023-04-20T02:25:28.516Z,88.00
2023-04-20T02:27:33.593Z,88.60
2023-04-20T02:29:41.658Z,88.80
2023-04-20T02:31:47.085Z,89.00
2023-04-20T02:33:54.220Z,88.30
2023-04-20T02:35:59.562Z,89.60
2023-04-20T02:38:07.628Z,89.40
2023-04-20T02:40:13.889Z,89.40
2023-04-20T02:42:18.979Z,89.60
2023-04-20T02:44:26.109Z,89.60
2023-04-20T02:46:33.880Z,90.10
2023-04-20T02:48:39.011Z,90.50
2023-04-20T02:50:45.538Z,90.30
2023-04-20T02:52:57.026Z,90.60
2023-04-20T02:55:02.816Z,90.40
2023-04-20T02:57:07.843Z,90.60
2023-04-20T02:59:13.252Z,90.40
2023-04-20T03:01:27.904Z,90.40
2023-04-20T03:03:44.381Z,91.20
2023-04-20T03:05:50.872Z,91.30
2023-04-20T03:07:56.236Z,90.90
2023-04-20T03:10:04.591Z,91.00
2023-04-20T03:12:26.320Z,90.70
2023-04-20T03:14:50.689Z,90.40
2023-04-20T03:16:59.855Z,91.10
2023-04-20T03:19:08.017Z,91.20
2023-04-20T03:21:15.068Z,90.70
2023-04-20T03:23:20.086Z,90.80
2023-04-20T03:25:25.873Z,90.70
2023-04-20T03:27:37.958Z,91.40
2023-04-20T03:29:48.980Z,91.10
2023-04-20T03:31:55.675Z,91.10
2023-04-20T03:34:00.798Z,90.90
2023-04-20T03:36:09.934Z,91.50
2023-04-20T03:38:15.088Z,91.10
2023-04-20T03:40:20.558Z,91.20
2023-04-20T03:42:26.097Z,91.30
2023-04-20T03:44:32.794Z,91.60
2023-04-20T03:46:38.450Z,92.00
2023-04-20T03:48:43.490Z,91.70
2023-04-20T03:50:49.192Z,92.00
2023-04-20T03:52:56.827Z,91.80
2023-04-20T03:55:02.094Z,91.80
2023-04-20T03:57:07.430Z,92.00
2023-04-20T03:59:13.215Z,92.00
2023-04-20T04:01:21.678Z,91.70
2023-04-20T04:03:28.243Z,91.80
2023-04-20T04:05:33.794Z,91.90
2023-04-20T04:07:40.210Z,92.10
2023-04-20T04:09:47.802Z,92.20
2023-04-20T04:11:54.180Z,92.00
2023-04-20T04:14:01.379Z,92.20
2023-04-20T04:16:08.282Z,92.40
2023-04-20T04:18:14.048Z,92.30
2023-04-20T04:20:20.551Z,92.20
2023-04-20T04:22:25.760Z,92.20
2023-04-20T04:24:54.757Z,92.30
2023-04-20T04:27:05.355Z,91.90
2023-04-20T04:29:14.709Z,92.10
2023-04-20T04:31:21.630Z,92.10
2023-04-20T04:33:27.238Z,92.40
2023-04-20T04:35:33.537Z,92.40
2023-04-20T04:37:39.472Z,92.50
2023-04-20T04:39:45.279Z,92.50
2023-04-20T04:42:10.232Z,92.30
2023-04-20T04:44:19.796Z,92.40
2023-04-20T04:46:25.674Z,92.30
2023-04-20T04:48:31.074Z,92.20
2023-04-20T04:50:36.333Z,92.30
2023-04-20T04:52:41.744Z,92.20
2023-04-20T04:54:47.254Z,92.40
2023-04-20T04:56:52.265Z,92.20
2023-04-20T04:59:00.234Z,92.60
2023-04-20T05:01:05.226Z,92.50
2023-04-20T05:03:10.811Z,92.70
2023-04-20T05:05:17.274Z,92.50
2023-04-20T05:07:22.578Z,92.00
2023-04-20T05:09:33.968Z,92.10
2023-04-20T05:11:39.428Z,92.50
2023-04-20T05:13:44.424Z,92.90
2023-04-20T05:15:52.482Z,92.00
2023-04-20T05:17:58.322Z,92.30
2023-04-20T05:20:06.363Z,91.80
2023-04-20T05:22:12.167Z,92.30
2023-04-20T05:24:17.796Z,92.10
2023-04-20T05:26:23.370Z,92.00
2023-04-20T05:28:28.709Z,90.90
2023-04-20T05:30:33.858Z,91.50
2023-04-20T05:32:42.201Z,91.50
2023-04-20T05:34:47.261Z,91.80
2023-04-20T05:36:52.426Z,91.70
2023-04-20T05:38:57.991Z,91.60
2023-04-20T05:41:03.334Z,91.70
2023-04-20T05:43:08.753Z,91.50
2023-04-20T05:45:15.010Z,91.60
2023-04-20T05:47:20.044Z,91.00
2023-04-20T05:49:27.794Z,91.20
2023-04-20T05:51:34.153Z,90.80
2023-04-20T05:53:39.649Z,91.40
2023-04-20T05:55:44.672Z,90.90
2023-04-20T05:57:50.264Z,91.20
2023-04-20T05:59:56.148Z,90.60
2023-04-20T06:02:01.293Z,90.70
2023-04-20T06:04:06.650Z,90.80
2023-04-20T06:06:16.812Z,89.90
2023-04-20T06:08:21.952Z,90.50
2023-04-20T06:10:32.393Z,90.60
2023-04-20T06:12:38.293Z,89.90
2023-04-20T06:14:43.287Z,89.40
2023-04-20T06:16:48.290Z,90.00
2023-04-20T06:18:53.788Z,89.30
2023-04-20T06:21:00.100Z,89.80
2023-04-20T06:23:08.013Z,90.60
2023-04-20T06:25:13.617Z,89.60
2023-04-20T06:27:18.624Z,89.50
2023-04-20T06:29:24.351Z,89.70
2023-04-20T06:31:29.410Z,89.90
2023-04-20T06:33:35.143Z,88.90
2023-04-20T06:35:40.359Z,88.10
2023-04-20T06:37:45.403Z,88.90
2023-04-20T06:39:56.856Z,88.50
2023-04-20T06:42:02.607Z,88.40
2023-04-20T06:44:08.666Z,88.10
2023-04-20T06:46:13.720Z,88.20
2023-04-20T06:48:31.373Z,88.90
2023-04-20T06:50:37.746Z,87.40
2023-04-20T06:52:44.215Z,87.40
2023-04-20T06:54:52.079Z,88.60
2023-04-20T06:56:57.273Z,86.50
2023-04-20T06:59:02.581Z,87.90
2023-04-20T07:01:08.365Z,86.50
2023-04-20T07:03:13.848Z,85.80
2023-04-20T07:05:21.173Z,85.70
2023-04-20T07:07:26.228Z,88.90
2023-04-20T07:09:31.396Z,87.10
2023-04-20T07:11:39.114Z,84.80
2023-04-20T07:13:44.379Z,85.40
2023-04-20T07:15:49.644Z,85.90
2023-04-20T07:17:54.728Z,85.30
2023-04-20T07:20:06.845Z,85.10
2023-04-20T07:22:11.868Z,85.30
2023-04-20T07:24:16.855Z,85.20
2023-04-20T07:26:21.877Z,83.50
2023-04-20T07:28:29.451Z,85.10
2023-04-20T07:30:34.951Z,85.00
2023-04-20T07:32:41.907Z,84.10
2023-04-20T07:34:46.962Z,79.50
2023-04-20T07:36:52.178Z,78.90
2023-04-20T07:38:57.252Z,80.50
2023-04-20T07:41:02.584Z,79.60
2023-04-20T07:43:07.587Z,79.30
2023-04-20T07:45:17.139Z,77.90
2023-04-20T07:47:22.203Z,78.90
2023-04-20T07:49:27.525Z,78.60
2023-04-20T07:51:34.519Z,78.70
2023-04-20T07:53:39.517Z,78.40
2023-04-20T07:55:44.554Z,77.60
2023-04-20T07:57:49.555Z,78.40
2023-04-20T07:59:54.789Z,77.00
2023-04-20T08:02:06.202Z,76.80
2023-04-20T08:04:11.549Z,77.60
2023-04-20T08:06:16.895Z,75.10
2023-04-20T08:08:22.072Z,74.70
2023-04-20T08:10:27.523Z,75.50
2023-04-20T08:12:33.740Z,76.00
2023-04-20T08:14:38.766Z,76.00
2023-04-20T08:16:44.837Z,77.40
2023-04-20T08:18:52.430Z,76.10
2023-04-20T08:20:57.735Z,77.30
2023-04-20T08:23:02.733Z,77.50
2023-04-20T08:25:08.735Z,76.90
2023-04-20T08:27:13.747Z,71.90
2023-04-20T08:29:19.069Z,74.60
2023-04-20T08:31:24.125Z,76.50
2023-04-20T08:33:29.381Z,75.90
2023-04-20T08:35:37.047Z,74.90
2023-04-20T08:37:43.244Z,75.30
2023-04-20T08:39:48.493Z,72.30
2023-04-20T08:41:55.842Z,71.00
2023-04-20T08:44:01.239Z,72.60
2023-04-20T08:46:06.337Z,70.50
2023-04-20T08:48:13.348Z,67.30
2023-04-20T08:50:19.363Z,69.70
2023-04-20T08:52:26.961Z,70.90
2023-04-20T08:54:32.611Z,67.60
2023-04-20T08:56:40.679Z,66.00
2023-04-20T08:58:45.859Z,69.00
2023-04-20T09:00:51.590Z,61.60
2023-04-20T09:02:59.217Z,65.50
2023-04-20T09:05:06.303Z,69.70
2023-04-20T09:07:21.563Z,65.90
2023-04-20T09:09:29.244Z,65.80
2023-04-20T09:11:34.287Z,62.90
2023-04-20T09:13:39.689Z,62.40
2023-04-20T09:15:45.008Z,60.90
2023-04-20T09:17:50.053Z,60.20
2023-04-20T09:19:57.091Z,60.20
2023-04-20T09:22:06.779Z,60.30
2023-04-20T09:24:12.062Z,62.80
2023-04-20T09:26:23.404Z,62.10
2023-04-20T09:28:39.556Z,62.50
2023-04-20T09:30:47.796Z,62.50
2023-04-20T09:33:03.168Z,64.60
2023-04-20T09:35:10.070Z,64.60
2023-04-20T09:37:18.752Z,64.30
2023-04-20T09:39:25.679Z,66.50
2023-04-20T09:41:34.830Z,65.80
2023-04-20T09:43:40.465Z,61.30
2023-04-20T09:45:46.521Z,61.80
2023-04-20T09:47:52.728Z,59.20
2023-04-20T09:50:00.105Z,59.30
2023-04-20T09:52:07.236Z,59.10
2023-04-20T09:54:13.578Z,61.20
2023-04-20T09:56:21.069Z,60.50
2023-04-20T09:58:29.071Z,58.80
2023-04-20T10:00:34.258Z,61.10
2023-04-20T10:02:39.760Z,59.10
2023-04-20T10:04:59.627Z,57.30
2023-04-20T10:07:06.463Z,58.70
2023-04-20T10:09:23.439Z,61.20
2023-04-20T10:11:44.526Z,61.50
2023-04-20T10:13:57.340Z,60.40
2023-04-20T10:16:02.655Z,61.30
2023-04-20T10:18:20.561Z,59.90
2023-04-20T10:20:29.649Z,59.30
2023-04-20T10:22:35.974Z,59.20
2023-04-20T10:24:42.197Z,58.00
2023-04-20T10:26:48.917Z,57.10
2023-04-20T10:28:56.517Z,59.30
2023-04-20T10:31:02.241Z,58.40
2023-04-20T10:33:10.114Z,58.70
2023-04-20T10:35:16.361Z,59.50
2023-04-20T10:37:21.430Z,59.90
2023-04-20T10:39:27.730Z,59.10
2023-04-20T10:41:33.537Z,57.30
2023-04-20T10:43:42.263Z,57.10
2023-04-20T10:45:50.793Z,57.00
2023-04-20T10:47:56.696Z,55.70
2023-04-20T10:50:13.872Z,58.70
2023-04-20T10:52:21.829Z,57.20
2023-04-20T10:54:27.226Z,58.30
2023-04-20T10:56:41.248Z,60.30
2023-04-20T10:58:46.261Z,57.00
2023-04-20T11:01:03.999Z,57.60
2023-04-20T11:03:09.791Z,58.20
2023-04-20T11:05:16.133Z,56.90
2023-04-20T11:07:21.720Z,58.20
2023-04-20T11:09:29.001Z,61.00
2023-04-20T11:11:37.421Z,59.60
2023-04-20T11:13:42.563Z,63.60
2023-04-20T11:15:47.890Z,59.30
2023-04-20T11:17:55.806Z,58.30
2023-04-20T11:20:11.058Z,57.50
2023-04-20T11:22:25.605Z,55.20
2023-04-20T11:24:34.077Z,55.30
2023-04-20T11:26:44.235Z,54.40
2023-04-20T11:28:57.286Z,55.70
2023-04-20T11:31:02.529Z,55.70
2023-04-20T11:33:10.833Z,57.70
2023-04-20T11:35:16.287Z,55.30
2023-04-20T11:37:21.469Z,57.50
2023-04-20T11:39:27.528Z,55.60
2023-04-20T11:41:32.757Z,54.70
2023-04-20T11:43:39.030Z,55.40
2023-04-20T11:45:44.458Z,52.20
2023-04-20T11:47:49.797Z,55.30
2023-04-20T11:49:57.441Z,57.50
2023-04-20T11:52:02.674Z,56.30
2023-04-20T11:54:07.873Z,57.30
2023-04-20T11:56:12.894Z,57.70
2023-04-20T11:58:18.242Z,55.70
2023-04-20T12:00:24.640Z,53.70
2023-04-20T12:02:30.152Z,53.90
2023-04-20T12:04:36.050Z,55.40
2023-04-20T12:06:44.190Z,55.90
2023-04-20T12:08:49.272Z,57.20
2023-04-20T12:10:55.489Z,62.50
2023-04-20T12:13:02.496Z,65.40
2023-04-20T12:15:09.658Z,62.30
2023-04-20T12:17:14.701Z,62.10
2023-04-20T12:19:20.446Z,64.90
2023-04-20T12:21:25.980Z,62.00
2023-04-20T12:23:34.154Z,62.50
2023-04-20T12:25:39.188Z,61.30
2023-04-20T12:27:44.424Z,59.30
2023-04-20T12:29:49.440Z,58.10
2023-04-20T12:31:54.778Z,59.80
2023-04-20T12:34:00.244Z,60.50
2023-04-20T12:36:05.406Z,58.40
2023-04-20T12:38:12.359Z,60.30
2023-04-20T12:40:21.555Z,59.50
2023-04-20T12:42:27.184Z,63.30
2023-04-20T12:44:32.509Z,59.20
2023-04-20T12:46:37.591Z,59.40
2023-04-20T12:48:42.911Z,60.30
2023-04-20T12:50:48.186Z,62.30
2023-04-20T12:52:56.194Z,64.80
2023-04-20T12:55:01.571Z,64.80
2023-04-20T12:57:09.261Z,64.20
2023-04-20T12:59:14.463Z,65.10
2023-04-20T13:01:19.962Z,66.10
2023-04-20T13:03:25.448Z,66.00
2023-04-20T13:05:31.212Z,65.40
2023-04-20T13:07:36.726Z,66.30
2023-04-20T13:09:42.097Z,65.40
2023-04-20T13:11:47.414Z,65.20
2023-04-20T13:13:56.610Z,64.60
2023-04-20T13:16:01.654Z,65.00
2023-04-20T13:18:07.230Z,64.80
2023-04-20T13:20:14.134Z,65.90
2023-04-20T13:22:19.734Z,65.00
2023-04-20T13:24:24.761Z,65.60
2023-04-20T13:26:29.815Z,65.00
2023-04-20T13:28:35.113Z,65.50
2023-04-20T13:30:42.737Z,66.10
2023-04-20T13:32:47.801Z,67.40
2023-04-20T13:34:52.838Z,66.80
2023-04-20T13:36:58.423Z,67.70
2023-04-20T13:39:05.201Z,66.90
2023-04-20T13:41:10.234Z,66.90
2023-04-20T13:43:15.792Z,66.70
2023-04-20T13:45:21.290Z,66.60
2023-04-20T13:47:29.035Z,67.10
2023-04-20T13:49:34.239Z,67.60
2023-04-20T13:51:39.647Z,67.30
2023-04-20T13:53:44.717Z,68.30
2023-04-20T13:55:49.714Z,67.10
2023-04-20T13:57:55.499Z,66.60
2023-04-20T14:00:01.302Z,66.90
2023-04-20T14:02:11.177Z,67.90
2023-04-20T14:04:19.510Z,68.00
2023-04-20T14:06:25.882Z,67.40
2023-04-20T14:08:31.003Z,69.40
2023-04-20T14:10:39.891Z,68.20
2023-04-20T14:12:44.924Z,70.40
2023-04-20T14:14:50.277Z,70.10
2023-04-20T14:16:55.294Z,71.20
2023-04-20T14:19:00.776Z,70.50
2023-04-20T14:21:09.223Z,71.40
2023-04-20T14:23:14.969Z,71.20
2023-04-20T14:25:20.467Z,72.50
2023-04-20T14:27:25.521Z,71.80
2023-04-20T14:29:30.965Z,72.80
2023-04-20T14:31:37.287Z,73.10
2023-04-20T14:33:44.724Z,72.60
2023-04-20T14:35:50.140Z,73.40
2023-04-20T14:37:57.771Z,72.80
2023-04-20T14:40:03.396Z,73.30
2023-04-20T14:42:08.779Z,73.10
2023-04-20T14:44:13.831Z,73.90
2023-04-20T14:46:19.258Z,74.00
2023-04-20T14:48:25.176Z,73.30
2023-04-20T14:50:32.722Z,74.40
2023-04-20T14:52:37.892Z,73.10
2023-04-20T14:54:45.712Z,74.30
2023-04-20T14:56:51.124Z,74.60
2023-04-20T14:58:57.382Z,73.70
2023-04-20T15:01:02.755Z,74.20
2023-04-20T15:03:07.997Z,74.80
2023-04-20T15:05:13.881Z,74.90
2023-04-20T15:07:19.412Z,75.00
2023-04-20T15:09:24.603Z,75.10
2023-04-20T15:11:32.186Z,75.40
2023-04-20T15:13:41.142Z,75.40
2023-04-20T15:15:48.935Z,76.00
2023-04-20T15:17:54.784Z,76.20
2023-04-20T15:19:59.805Z,75.50
2023-04-20T15:22:04.835Z,75.70
2023-04-20T15:24:10.608Z,76.80
2023-04-20T15:26:16.158Z,76.30
2023-04-20T15:28:23.805Z,75.90
2023-04-20T15:30:28.863Z,76.60
2023-04-20T15:32:34.200Z,76.20
2023-04-20T15:34:39.263Z,76.60
2023-04-20T15:36:44.653Z,76.10
2023-04-20T15:38:49.773Z,76.80
2023-04-20T15:40:55.898Z,77.50
2023-04-20T15:43:02.893Z,75.80
2023-04-20T15:45:11.990Z,76.00
2023-04-20T15:47:17.040Z,75.90
2023-04-20T15:49:22.638Z,75.70
2023-04-20T15:51:28.304Z,76.70
2023-04-20T15:53:33.417Z,76.40
2023-04-20T15:55:41.435Z,76.40
2023-04-20T15:57:46.457Z,75.90
2023-04-20T15:59:51.453Z,76.10
2023-04-20T16:01:59.812Z,75.80
2023-04-20T16:04:04.996Z,75.30
2023-04-20T16:06:10.689Z,76.20
2023-04-20T16:08:18.973Z,75.30
2023-04-20T16:10:24.058Z,75.30
2023-04-20T16:12:29.259Z,76.20
2023-04-20T16:14:34.559Z,75.50
2023-04-20T16:16:39.567Z,76.50
2023-04-20T16:18:48.317Z,75.90
2023-04-20T16:20:53.731Z,75.80
2023-04-20T16:22:58.735Z,74.80
2023-04-20T16:25:03.759Z,75.30
2023-04-20T16:27:08.774Z,75.20
2023-04-20T16:29:13.997Z,74.40
2023-04-20T16:31:19.030Z,74.30
2023-04-20T16:33:24.486Z,75.30
2023-04-20T16:35:32.383Z,75.60
2023-04-20T16:37:37.409Z,74.40
2023-04-20T16:39:43.128Z,74.60
2023-04-20T16:41:48.211Z,74.90
2023-04-20T16:43:53.203Z,74.50
2023-04-20T16:45:58.256Z,74.90
2023-04-20T16:48:03.430Z,74.80
2023-04-20T16:50:10.284Z,73.40
2023-04-20T16:52:17.873Z,73.90
2023-04-20T16:54:23.353Z,75.20
2023-04-20T16:56:28.502Z,73.70
2023-04-20T16:58:34.080Z,74.60
2023-04-20T17:00:39.788Z,74.10
2023-04-20T17:02:45.005Z,73.90
2023-04-20T17:04:50.526Z,74.20
2023-04-20T17:06:55.767Z,74.80
2023-04-20T17:09:07.129Z,74.30
2023-04-20T17:11:12.389Z,74.60
2023-04-20T17:13:18.477Z,75.30
2023-04-20T17:15:23.671Z,73.80
2023-04-20T17:17:29.034Z,74.10
2023-04-20T17:19:35.288Z,74.60
2023-04-20T17:21:40.796Z,74.10
2023-04-20T17:23:46.223Z,74.40
2023-04-20T17:25:54.762Z,74.40
2023-04-20T17:28:00.058Z,74.40
2023-04-20T17:30:05.977Z,74.50
2023-04-20T17:32:11.223Z,74.20
2023-04-20T17:34:16.683Z,73.90
2023-04-20T17:36:21.839Z,74.20
2023-04-20T17:38:27.045Z,74.60
2023-04-20T17:40:32.262Z,75.30
2023-04-20T17:42:39.896Z,75.10
2023-04-20T17:44:45.195Z,75.40
2023-04-20T17:46:52.459Z,75.20
2023-04-20T17:48:57.736Z,75.50
2023-04-20T17:51:03.090Z,75.20
2023-04-20T17:53:09.138Z,75.20
2023-04-20T17:55:14.706Z,75.30
2023-04-20T17:57:19.705Z,75.90
2023-04-20T17:59:28.607Z,76.50
2023-04-20T18:01:36.057Z,76.00
2023-04-20T18:03:42.558Z,75.80
2023-04-20T18:05:48.638Z,76.90
2023-04-20T18:07:53.730Z,76.80
2023-04-20T18:09:58.760Z,77.00
2023-04-20T18:12:04.116Z,77.10
2023-04-20T18:14:09.402Z,77.30
2023-04-20T18:16:17.556Z,77.50
2023-04-20T18:18:22.818Z,78.40
2023-04-20T18:20:29.443Z,78.50
2023-04-20T18:22:36.056Z,78.20
2023-04-20T18:24:41.318Z,79.00
2023-04-20T18:26:46.313Z,78.30
2023-04-20T18:28:51.295Z,78.50
2023-04-20T18:30:58.924Z,79.10
2023-04-20T18:33:06.945Z,78.90
2023-04-20T18:35:13.756Z,79.00
2023-04-20T18:37:19.018Z,79.10
2023-04-20T18:39:24.030Z,79.10
2023-04-20T18:41:30.509Z,79.30
2023-04-20T18:43:35.522Z,79.70
2023-04-20T18:45:40.533Z,79.80
2023-04-20T18:47:46.175Z,80.30
2023-04-20T18:49:54.226Z,80.00
2023-04-20T18:51:59.269Z,80.20
2023-04-20T18:54:04.277Z,80.70
2023-04-20T18:56:10.289Z,80.50
2023-04-20T18:58:15.450Z,81.10
2023-04-20T19:00:21.638Z,80.80
2023-04-20T19:02:27.500Z,81.50
2023-04-20T19:04:33.052Z,81.40
2023-04-20T19:06:40.756Z,81.50
2023-04-20T19:08:45.802Z,81.40
2023-04-20T19:10:50.812Z,81.40
2023-04-20T19:12:55.832Z,81.90
2023-04-20T19:15:00.807Z,81.70
2023-04-20T19:17:08.534Z,81.90
2023-04-20T19:19:13.551Z,82.40
2023-04-20T19:21:21.002Z,82.50
2023-04-20T19:23:29.620Z,82.80
2023-04-20T19:25:37.147Z,82.70
2023-04-20T19:27:42.225Z,82.40
2023-04-20T19:29:47.296Z,82.80
2023-04-20T19:31:52.347Z,82.80
2023-04-20T19:33:57.431Z,82.50
2023-04-20T19:36:03.532Z,82.30
2023-04-20T19:38:08.519Z,82.40
2023-04-20T19:40:16.402Z,82.30
2023-04-20T19:42:22.940Z,82.00
2023-04-20T19:44:28.302Z,82.40
2023-04-20T19:46:33.586Z,82.40
2023-04-20T19:48:38.926Z,82.20
2023-04-20T19:50:43.937Z,82.00
2023-04-20T19:52:49.065Z,81.70
2023-04-20T19:54:54.070Z,81.60
2023-04-20T19:57:01.886Z,81.40
2023-04-20T19:59:06.980Z,81.40
2023-04-20T20:01:12.282Z,81.40
2023-04-20T20:03:17.871Z,81.60
2023-04-20T20:05:23.080Z,81.40
2023-04-20T20:07:28.788Z,81.90
2023-04-20T20:09:33.867Z,82.10
2023-04-20T20:11:39.000Z,82.10
2023-04-20T20:13:46.606Z,82.10
2023-04-20T20:15:51.877Z,82.20
2023-04-20T20:17:58.823Z,82.20
2023-04-20T20:20:06.237Z,82.40
2023-04-20T20:22:11.646Z,82.20
2023-04-20T20:24:16.730Z,82.10
2023-04-20T20:26:21.854Z,82.50
2023-04-20T20:28:27.053Z,82.70
2023-04-20T20:30:35.021Z,82.50
2023-04-20T20:32:41.272Z,82.50
2023-04-20T20:34:46.528Z,83.10
2023-04-20T20:36:53.389Z,82.90
2023-04-20T20:38:58.489Z,83.10
2023-04-20T20:41:04.237Z,83.30
2023-04-20T20:43:10.921Z,83.20
2023-04-20T20:45:16.494Z,83.50
2023-04-20T20:47:24.082Z,83.60
2023-04-20T20:49:29.225Z,83.30
2023-04-20T20:51:34.484Z,84.00
2023-04-20T20:53:40.178Z,83.80
2023-04-20T20:55:45.191Z,83.80
2023-04-20T20:57:50.471Z,83.80
2023-04-20T20:59:55.721Z,83.80
2023-04-20T21:02:00.852Z,83.70
2023-04-20T21:04:08.659Z,84.00
2023-04-20T21:06:14.152Z,83.90
2023-04-20T21:08:19.373Z,84.20
2023-04-20T21:10:24.443Z,84.10
2023-04-20T21:12:29.569Z,83.90
2023-04-20T21:14:34.655Z,83.70
2023-04-20T21:16:40.119Z,84.00
2023-04-20T21:18:45.221Z,83.60
2023-04-20T21:20:52.807Z,83.70
2023-04-20T21:22:57.809Z,84.10
2023-04-20T21:25:02.829Z,83.90
2023-04-20T21:27:08.095Z,84.10
2023-04-20T21:29:13.209Z,84.10
2023-04-20T21:31:18.199Z,84.00
2023-04-20T21:33:23.566Z,83.70
2023-04-20T21:35:28.596Z,84.10
2023-04-20T21:37:36.634Z,84.10
2023-04-20T21:39:41.804Z,84.30
2023-04-20T21:41:47.189Z,84.40
2023-04-20T21:43:55.086Z,84.40
2023-04-20T21:46:00.131Z,84.60
2023-04-20T21:48:05.883Z,84.70
2023-04-20T21:50:11.796Z,84.80
2023-04-20T21:52:16.790Z,85.00
2023-04-20T21:54:24.420Z,84.50
2023-04-20T21:56:29.489Z,84.30
2023-04-20T21:58:35.010Z,84.40
2023-04-20T22:00:39.998Z,84.50
2023-04-20T22:02:45.537Z,84.80
2023-04-20T22:04:51.240Z,84.50
2023-04-20T22:06:56.449Z,84.60
2023-04-20T22:09:01.947Z,84.70
2023-04-20T22:11:10.000Z,84.80
2023-04-20T22:13:16.375Z,84.60
2023-04-20T22:15:22.434Z,84.60
2023-04-20T22:17:29.897Z,84.40
2023-04-20T22:19:34.914Z,84.70
2023-04-20T22:21:40.626Z,84.70
2023-04-20T22:23:45.657Z,85.30
2023-04-20T22:25:50.677Z,85.20
2023-04-20T22:27:58.265Z,85.10
2023-04-20T22:30:03.697Z,85.20
2023-04-20T22:32:09.207Z,85.50
2023-04-20T22:34:14.214Z,85.10
2023-04-20T22:36:19.276Z,85.20
2023-04-20T22:38:24.318Z,85.40
2023-04-20T22:40:30.025Z,85.20
2023-04-20T22:42:36.094Z,85.70
2023-04-20T22:44:43.937Z,85.80
2023-04-20T22:46:51.025Z,85.50
2023-04-20T22:48:56.789Z,85.50
2023-04-20T22:51:03.040Z,85.70
2023-04-20T22:53:08.057Z,85.20
2023-04-20T22:55:14.776Z,85.60
2023-04-20T22:57:21.083Z,85.90
2023-04-20T22:59:26.617Z,85.60
2023-04-20T23:01:34.185Z,85.80
2023-04-20T23:03:39.545Z,85.70
2023-04-20T23:05:45.215Z,86.30
2023-04-20T23:07:50.306Z,86.50
2023-04-20T23:09:56.888Z,86.00
2023-04-20T23:12:03.546Z,86.10
2023-04-20T23:14:08.992Z,86.30
2023-04-20T23:16:14.043Z,85.80
2023-04-20T23:18:21.717Z,85.50
2023-04-20T23:20:28.014Z,86.10
2023-04-20T23:22:33.036Z,86.50
2023-04-20T23:24:38.830Z,86.60
2023-04-20T23:26:43.809Z,86.70
2023-04-20T23:28:48.808Z,86.40
2023-04-20T23:30:53.994Z,86.10
2023-04-20T23:32:59.036Z,86.60
2023-04-20T23:35:08.323Z,87.20
2023-04-20T23:37:13.342Z,86.70
2023-04-20T23:39:18.520Z,86.50
2023-04-20T23:41:25.256Z,86.30
2023-04-20T23:43:30.259Z,87.20
2023-04-20T23:45:35.995Z,87.10
2023-04-20T23:47:41.311Z,86.90
2023-04-20T23:49:46.358Z,87.20
2023-04-20T23:51:54.184Z,86.60
2023-04-20T23:53:59.201Z,86.50
2023-04-20T23:56:04.490Z,87.30
2023-04-20T23:58:09.495Z,86.50
